Aérodrome :
LOGIN :

S'inscrire | Disclaimer

   EN    FR    IT 

 










Légende :    VFR   VFR Marginal   IFR   IFR Intensif   IFR Très Intensif
Visi : 
Plafond : 
>= 8 km
>= 3000ft
5 à 8 km
1000 à 3000 ft
1500m à 5 km
500 à 1000 ft
800 à 1500m
200 à 500 ft
< 800m
< 200 ft
Symboles :   Orages  Brouillard  Fortes neiges  Fortes précipitations  Vent > 20 kt
SIGMETs :   Divers  Orages  Givrage  Turbulence  Onde Orograph.  Cendres Volcan.






- Altitude de l'aérodrome : 82 ft
- Code IATA : ALG


DAAG - Alger Houari Boumedienne

DERNIER METAR :
  • 300730Z 00000KT CAVOK 11/10 Q1015

METARs EXPIRÉS :
  • 300700Z 00000KT CAVOK 10/09 Q1015
  • 300630Z 18002KT 9999 FEW026 06/06 Q1015
  • 300600Z 00000KT 9999 FEW026 05/04 Q1015
  • 300530Z 21001KT 9999 FEW026 05/05 Q1015
  • 300500Z 00000KT 9999 FEW026 05/05 Q1014

TAF TAF DAAG
Valide du 30 à 06h jusqu'au 31 à 06h UTC


300500Z 3006/3106 VRB02KT 9999 FEW026
PROB30
TEMPO 3008/3016 FEW026TCU
BECMG 3009/3012 02010KT
PROB40
TEMPO 3016/3020 FEW030CB



MET'MAP, la Météo Aéronautique d'un coup d'oeil ! - Copyright ORBIFLY Décembre 2007 - Disclaimer

ORBIFLY MET'MAP TEAM :

Programmation & Développement : Alexandra Zaïnal
Sur une idée originale de : Baudouin d'Aumeries
Assistance à la programmation : Marc-Olivier Méhu
Soutien technique & logistique : Manuel Goepfert

Contact : metmap@orbifly.com




SOURCES & CREDITS :

   NOAA